Back to Top

Language: 

My Weather Underground Personal Weather Station Historical Data with Graphs...

Delerius Weather Station Historical Data
Daily Summary for October 27, 2017 Units:  English    Metric   Both
« Previous Day
Next Day »
Daily Weekly Monthly Yearly Custom
  High: Low: Average:
Temperature: 58.1 °F 42.1 °F 49.7 °F
Dew Point: 46.5 °F 40.2 °F 44 °F
Humidity: 95 % 62 % 82 %
Wind Speed: 17.0 mph 0.0 mph 4.6 mph
Wind Gust: 27.0 mph - -
Wind:- - WNW
Pressure: 30.55 in 30.35 in -
Precipitation: 0.00 in    
Historical Graphs
 
 
Tabular Data for October 27, 2017
Time Temperature Dew Point Pressure Wind Wind Speed Wind Gust Humidity Rainfall Rate (Hourly) solar Conditions
00:03 48.7 °F 46.2 °F 30.36 in NW 3.0 mph 6.0 mph 91 % 0.00 in 0 W/m2
00:08 48.7 °F 46.2 °F 30.36 in NW 4.0 mph 6.0 mph 91 % 0.00 in 0 W/m2
00:13 48.7 °F 46.2 °F 30.36 in NW 4.0 mph 7.0 mph 91 % 0.00 in 0 W/m2
00:18 48.6 °F 46.1 °F 30.36 in NW 3.0 mph 9.0 mph 91 % 0.00 in 0 W/m2
00:28 48.6 °F 46.1 °F 30.35 in NW 2.0 mph 6.0 mph 91 % 0.00 in 0 W/m2
00:33 48.4 °F 45.9 °F 30.36 in WNW 4.0 mph 6.0 mph 91 % 0.00 in 0 W/m2
00:38 48.2 °F 45.7 °F 30.36 in WNW 3.0 mph 6.0 mph 91 % 0.00 in 0 W/m2
00:43 48.0 °F 45.5 °F 30.36 in WNW 3.0 mph 7.0 mph 91 % 0.00 in 0 W/m2
00:48 47.8 °F 45.3 °F 30.36 in NW 2.0 mph 7.0 mph 91 % 0.00 in 0 W/m2
00:53 47.8 °F 45.3 °F 30.36 in WNW 3.0 mph 6.0 mph 91 % 0.00 in 0 W/m2
00:58 47.7 °F 45.2 °F 30.36 in WNW 5.0 mph 7.0 mph 91 % 0.00 in 0 W/m2
01:03 47.7 °F 45.5 °F 30.36 in WNW 4.0 mph 8.0 mph 92 % 0.00 in 0 W/m2
01:08 47.7 °F 45.5 °F 30.36 in WNW 3.0 mph 6.0 mph 92 % 0.00 in 0 W/m2
01:13 47.7 °F 45.5 °F 30.36 in NW 7.0 mph 11.0 mph 92 % 0.00 in 0 W/m2
01:19 47.7 °F 45.5 °F 30.36 in WNW 6.0 mph 9.0 mph 92 % 0.00 in 0 W/m2
01:24 47.7 °F 45.2 °F 30.36 in NW 5.0 mph 8.0 mph 91 % 0.00 in 0 W/m2
01:29 47.7 °F 45.2 °F 30.36 in NW 5.0 mph 8.0 mph 91 % 0.00 in 0 W/m2
01:34 47.7 °F 45.2 °F 30.37 in NNW 3.0 mph 6.0 mph 91 % 0.00 in 0 W/m2
01:44 47.7 °F 44.9 °F 30.37 in NW 5.0 mph 7.0 mph 90 % 0.00 in 0 W/m2
01:49 47.7 °F 44.9 °F 30.37 in NW 6.0 mph 9.0 mph 90 % 0.00 in 0 W/m2
01:54 47.8 °F 45.0 °F 30.38 in WNW 6.0 mph 9.0 mph 90 % 0.00 in 0 W/m2
01:59 47.8 °F 45.0 °F 30.38 in NW 4.0 mph 7.0 mph 90 % 0.00 in 0 W/m2
02:04 47.8 °F 45.0 °F 30.38 in NW 5.0 mph 10.0 mph 90 % 0.00 in 0 W/m2
02:09 48.0 °F 45.2 °F 30.38 in NW 5.0 mph 8.0 mph 90 % 0.00 in 0 W/m2
02:14 48.4 °F 45.6 °F 30.38 in NW 5.0 mph 7.0 mph 90 % 0.00 in 0 W/m2
02:19 48.4 °F 45.3 °F 30.38 in WNW 1.0 mph 4.0 mph 89 % 0.00 in 0 W/m2
02:24 48.6 °F 45.5 °F 30.38 in NW 3.0 mph 7.0 mph 89 % 0.00 in 0 W/m2
02:29 48.7 °F 45.6 °F 30.38 in NW 3.0 mph 6.0 mph 89 % 0.00 in 0 W/m2
02:34 48.7 °F 45.3 °F 30.38 in NW 4.0 mph 7.0 mph 88 % 0.00 in 0 W/m2
02:39 48.7 °F 45.3 °F 30.39 in NW 2.0 mph 6.0 mph 88 % 0.00 in 0 W/m2
02:44 48.7 °F 45.3 °F 30.39 in NW 4.0 mph 7.0 mph 88 % 0.00 in 0 W/m2
02:49 48.9 °F 45.5 °F 30.39 in WNW 2.0 mph 5.0 mph 88 % 0.00 in 0 W/m2
02:54 48.9 °F 45.5 °F 30.39 in WNW 2.0 mph 4.0 mph 88 % 0.00 in 0 W/m2
02:59 48.9 °F 45.5 °F 30.39 in NW 6.0 mph 9.0 mph 88 % 0.00 in 0 W/m2
03:04 48.7 °F 45.0 °F 30.39 in NW 3.0 mph 5.0 mph 87 % 0.00 in 0 W/m2
03:09 48.7 °F 45.0 °F 30.39 in NW 4.0 mph 9.0 mph 87 % 0.00 in 0 W/m2
03:14 48.6 °F 44.9 °F 30.39 in NW 2.0 mph 4.0 mph 87 % 0.00 in 0 W/m2
03:19 48.4 °F 44.7 °F 30.39 in NW 2.0 mph 6.0 mph 87 % 0.00 in 0 W/m2
03:24 48.0 °F 44.3 °F 30.39 in NW 3.0 mph 7.0 mph 87 % 0.00 in 0 W/m2
03:29 47.8 °F 44.2 °F 30.39 in NW 3.0 mph 6.0 mph 87 % 0.00 in 0 W/m2
03:39 47.7 °F 44.3 °F 30.39 in NW 6.0 mph 9.0 mph 88 % 0.00 in 0 W/m2
03:44 47.5 °F 44.1 °F 30.39 in NW 2.0 mph 6.0 mph 88 % 0.00 in 0 W/m2
03:49 47.5 °F 44.1 °F 30.40 in WNW 2.0 mph 7.0 mph 88 % 0.00 in 0 W/m2
03:54 47.3 °F 43.9 °F 30.40 in Calm   2.0 mph 88 % 0.00 in 0 W/m2
03:59 47.1 °F 43.7 °F 30.40 in WNW 1.0 mph 4.0 mph 88 % 0.00 in 0 W/m2
04:04 46.9 °F 43.6 °F 30.40 in NW 4.0 mph 7.0 mph 88 % 0.00 in 0 W/m2
04:09 46.8 °F 43.4 °F 30.40 in NW 4.0 mph 6.0 mph 88 % 0.00 in 0 W/m2
04:14 46.8 °F 43.7 °F 30.41 in NW 3.0 mph 6.0 mph 89 % 0.00 in 0 W/m2
04:19 46.6 °F 43.5 °F 30.41 in WNW 3.0 mph 8.0 mph 89 % 0.00 in 0 W/m2
04:24 46.6 °F 43.5 °F 30.41 in WNW 1.0 mph 4.0 mph 89 % 0.00 in 0 W/m2
04:29 46.6 °F 43.5 °F 30.41 in NW 2.0 mph 5.0 mph 89 % 0.00 in 0 W/m2
04:34 46.2 °F 43.2 °F 30.41 in NW 2.0 mph 5.0 mph 89 % 0.00 in 0 W/m2
04:39 46.2 °F 43.2 °F 30.41 in NW 3.0 mph 6.0 mph 89 % 0.00 in 0 W/m2
04:44 46.0 °F 43.3 °F 30.41 in NW 2.0 mph 7.0 mph 90 % 0.00 in 0 W/m2
04:49 46.0 °F 43.3 °F 30.41 in NW 1.0 mph 5.0 mph 90 % 0.00 in 0 W/m2
04:54 45.9 °F 42.8 °F 30.42 in Calm   1.0 mph 89 % 0.00 in 0 W/m2
04:59 45.7 °F 42.9 °F 30.42 in WNW 2.0 mph 6.0 mph 90 % 0.00 in 0 W/m2
05:04 45.3 °F 42.6 °F 30.42 in NW 3.0 mph 5.0 mph 90 % 0.00 in 0 W/m2
05:09 45.3 °F 42.6 °F 30.42 in NW 2.0 mph 4.0 mph 90 % 0.00 in 0 W/m2
05:14 45.1 °F 42.4 °F 30.42 in NW 2.0 mph 4.0 mph 90 % 0.00 in 0 W/m2
05:19 45.0 °F 42.2 °F 30.43 in NW 1.0 mph 2.0 mph 90 % 0.00 in 0 W/m2
05:24 44.8 °F 42.0 °F 30.43 in NW 2.0 mph 4.0 mph 90 % 0.00 in 0 W/m2
05:26 44.8 °F 42.0 °F 30.43 in NW 2.0 mph 4.0 mph 90 % 0.00 in 0 W/m2
05:31 44.6 °F 42.1 °F 30.43 in NW 2.0 mph 5.0 mph 91 % 0.00 in 0 W/m2
05:36 44.4 °F 42.0 °F 30.43 in NW 3.0 mph 6.0 mph 91 % 0.00 in 0 W/m2
05:41 44.4 °F 42.0 °F 30.44 in NW 3.0 mph 5.0 mph 91 % 0.00 in 0 W/m2
05:46 44.4 °F 42.2 °F 30.44 in NW 3.0 mph 5.0 mph 92 % 0.00 in 0 W/m2
05:51 44.4 °F 42.0 °F 30.44 in NW 2.0 mph 5.0 mph 91 % 0.00 in 0 W/m2
05:56 44.2 °F 41.8 °F 30.44 in NW 3.0 mph 6.0 mph 91 % 0.00 in 0 W/m2
06:01 44.2 °F 42.1 °F 30.44 in NW 4.0 mph 6.0 mph 92 % 0.00 in 0 W/m2
06:06 44.2 °F 42.1 °F 30.45 in NW 3.0 mph 6.0 mph 92 % 0.00 in 0 W/m2
06:12 44.2 °F 42.1 °F 30.45 in NW 1.0 mph 3.0 mph 92 % 0.00 in 0 W/m2
06:17 44.1 °F 41.9 °F 30.45 in WNW 2.0 mph 5.0 mph 92 % 0.00 in 0 W/m2
06:22 43.9 °F 41.7 °F 30.46 in WNW 3.0 mph 5.0 mph 92 % 0.00 in 0 W/m2
06:27 43.9 °F 41.7 °F 30.46 in WNW 3.0 mph 6.0 mph 92 % 0.00 in 0 W/m2
06:32 43.9 °F 41.7 °F 30.46 in NW 2.0 mph 4.0 mph 92 % 0.00 in 0 W/m2
06:37 43.7 °F 41.5 °F 30.46 in NW 2.0 mph 4.0 mph 92 % 0.00 in 0 W/m2
06:42 43.7 °F 41.5 °F 30.47 in WNW 2.0 mph 4.0 mph 92 % 0.00 in 0 W/m2
06:47 43.7 °F 41.8 °F 30.47 in WNW 2.0 mph 4.0 mph 93 % 0.00 in 0 W/m2
06:52 43.5 °F 41.4 °F 30.47 in WNW 2.0 mph 4.0 mph 92 % 0.00 in 0 W/m2
06:57 43.5 °F 41.6 °F 30.47 in WNW 1.0 mph 2.0 mph 93 % 0.00 in 0 W/m2
07:02 43.5 °F 41.6 °F 30.47 in NW 2.0 mph 5.0 mph 93 % 0.00 in 0 W/m2
07:07 43.5 °F 41.6 °F 30.47 in NW 2.0 mph 6.0 mph 93 % 0.00 in 0 W/m2
07:12 43.5 °F 41.6 °F 30.48 in NW 1.0 mph 5.0 mph 93 % 0.00 in 0 W/m2
07:17 43.5 °F 41.6 °F 30.48 in NW 1.0 mph 3.0 mph 93 % 0.00 in 0 W/m2
07:22 43.5 °F 41.6 °F 30.48 in WNW 1.0 mph 4.0 mph 93 % 0.00 in 0 W/m2
07:27 43.3 °F 41.2 °F 30.48 in Calm   3.0 mph 92 % 0.00 in 0 W/m2
07:32 43.2 °F 41.3 °F 30.48 in NW 1.0 mph 3.0 mph 93 % 0.00 in 0 W/m2
07:37 43.2 °F 41.3 °F 30.49 in NW 1.0 mph 3.0 mph 93 % 0.00 in 0 W/m2
07:42 43.0 °F 41.1 °F 30.49 in NW 2.0 mph 4.0 mph 93 % 0.00 in 0 W/m2
07:47 43.0 °F 41.1 °F 30.49 in NW 2.0 mph 4.0 mph 93 % 0.00 in 0 W/m2
07:52 42.8 °F 40.9 °F 30.49 in NW 1.0 mph 3.0 mph 93 % 0.00 in 5 W/m2
07:57 42.8 °F 40.9 °F 30.49 in Calm   2.0 mph 93 % 0.00 in 7 W/m2
08:02 42.6 °F 40.7 °F 30.50 in Calm   3.0 mph 93 % 0.00 in 9 W/m2
08:07 42.6 °F 40.7 °F 30.50 in Calm   1.0 mph 93 % 0.00 in 11 W/m2
08:12 42.4 °F 40.6 °F 30.50 in Calm   1.0 mph 93 % 0.00 in 21 W/m2
08:18 42.3 °F 40.4 °F 30.50 in Calm     93 % 0.00 in 26 W/m2
08:23 42.1 °F 40.2 °F 30.50 in NW 2.0 mph 4.0 mph 93 % 0.00 in 40 W/m2
08:28 42.1 °F 40.2 °F 30.50 in WNW 2.0 mph 5.0 mph 93 % 0.00 in 56 W/m2
08:33 42.3 °F 40.7 °F 30.50 in Calm   1.0 mph 94 % 0.00 in 70 W/m2
08:38 42.4 °F 40.8 °F 30.50 in Calm     94 % 0.00 in 83 W/m2
08:43 42.4 °F 40.8 °F 30.51 in WNW 1.0 mph 3.0 mph 94 % 0.00 in 97 W/m2
08:48 42.4 °F 40.8 °F 30.51 in WNW 2.0 mph 4.0 mph 94 % 0.00 in 65 W/m2
08:53 43.0 °F 41.4 °F 30.51 in WNW 1.0 mph 4.0 mph 94 % 0.00 in 121 W/m2
08:58 43.2 °F 41.8 °F 30.51 in WNW 1.0 mph 3.0 mph 95 % 0.00 in 130 W/m2
09:03 43.5 °F 41.9 °F 30.52 in WNW 1.0 mph 2.0 mph 94 % 0.00 in 141 W/m2
09:08 43.9 °F 42.3 °F 30.52 in WNW 1.0 mph 2.0 mph 94 % 0.00 in 146 W/m2
09:13 44.2 °F 42.6 °F 30.52 in WNW 1.0 mph 3.0 mph 94 % 0.00 in 153 W/m2
09:18 44.6 °F 43.0 °F 30.52 in WNW 1.0 mph 2.0 mph 94 % 0.00 in 162 W/m2
09:23 45.0 °F 43.3 °F 30.52 in WNW 2.0 mph 6.0 mph 94 % 0.00 in 172 W/m2
09:28 45.7 °F 44.1 °F 30.53 in WNW 2.0 mph 5.0 mph 94 % 0.00 in 183 W/m2
09:33 46.6 °F 44.9 °F 30.53 in WNW 1.0 mph 5.0 mph 94 % 0.00 in 192 W/m2
09:38 47.3 °F 45.1 °F 30.53 in WNW 3.0 mph 6.0 mph 92 % 0.00 in 200 W/m2
09:43 48.0 °F 45.5 °F 30.54 in WNW 3.0 mph 6.0 mph 91 % 0.00 in 211 W/m2
09:44 48.4 °F 45.6 °F 30.54 in WNW 2.0 mph 5.0 mph 90 % 0.00 in 211 W/m2
09:49 48.9 °F 45.5 °F 30.54 in WNW 3.0 mph 5.0 mph 88 % 0.00 in 221 W/m2
09:54 49.6 °F 45.9 °F 30.54 in NW 3.0 mph 9.0 mph 87 % 0.00 in 107 W/m2
09:59 50.2 °F 45.5 °F 30.54 in NW 2.0 mph 5.0 mph 84 % 0.00 in 243 W/m2
10:04 50.5 °F 45.6 °F 30.54 in NW 4.0 mph 7.0 mph 83 % 0.00 in 253 W/m2
10:09 50.9 °F 45.3 °F 30.54 in NW 3.0 mph 8.0 mph 81 % 0.00 in 264 W/m2
10:14 51.3 °F 45.6 °F 30.54 in WNW 3.0 mph 8.0 mph 81 % 0.00 in 274 W/m2
10:19 51.6 °F 45.7 °F 30.55 in NW 4.0 mph 8.0 mph 80 % 0.00 in 287 W/m2
10:24 52.0 °F 45.3 °F 30.55 in WNW 5.0 mph 8.0 mph 78 % 0.00 in 295 W/m2
10:29 52.0 °F 45.0 °F 30.55 in NW 4.0 mph 7.0 mph 77 % 0.00 in 306 W/m2
10:34 52.3 °F 45.3 °F 30.55 in NW 5.0 mph 9.0 mph 77 % 0.00 in 316 W/m2
10:39 52.5 °F 45.5 °F 30.55 in NW 2.0 mph 7.0 mph 77 % 0.00 in 323 W/m2
10:45 52.9 °F 45.5 °F 30.55 in NNW 2.0 mph 7.0 mph 76 % 0.00 in 332 W/m2
10:50 53.1 °F 45.3 °F 30.54 in WNW 3.0 mph 7.0 mph 75 % 0.00 in 341 W/m2
10:55 53.4 °F 45.7 °F 30.54 in WNW 4.0 mph 9.0 mph 75 % 0.00 in 348 W/m2
11:00 53.8 °F 45.7 °F 30.54 in NW 4.0 mph 7.0 mph 74 % 0.00 in 355 W/m2
11:05 54.0 °F 45.5 °F 30.54 in WNW 3.0 mph 6.0 mph 73 % 0.00 in 364 W/m2
11:10 54.1 °F 45.3 °F 30.54 in NW 1.0 mph 5.0 mph 72 % 0.00 in 373 W/m2
11:15 54.3 °F 45.5 °F 30.53 in NW 2.0 mph 4.0 mph 72 % 0.00 in 380 W/m2
11:20 54.7 °F 45.5 °F 30.53 in WNW 4.0 mph 5.0 mph 71 % 0.00 in 387 W/m2
11:25 54.7 °F 45.1 °F 30.53 in West 2.0 mph 5.0 mph 70 % 0.00 in 394 W/m2
11:30 54.5 °F 45.3 °F 30.54 in West 4.0 mph 6.0 mph 71 % 0.00 in 399 W/m2
11:35 54.7 °F 45.1 °F 30.54 in West 2.0 mph 5.0 mph 70 % 0.00 in 404 W/m2
11:40 54.9 °F 45.3 °F 30.54 in WNW 3.0 mph 6.0 mph 70 % 0.00 in 408 W/m2
11:45 55.0 °F 45.1 °F 30.54 in Calm   2.0 mph 69 % 0.00 in 413 W/m2
11:50 55.2 °F 44.8 °F 30.55 in West 3.0 mph 6.0 mph 68 % 0.00 in 417 W/m2
11:55 55.2 °F 44.4 °F 30.55 in West 3.0 mph 7.0 mph 67 % 0.00 in 422 W/m2
12:00 55.2 °F 44.8 °F 30.55 in WNW 4.0 mph 8.0 mph 68 % 0.00 in 425 W/m2
12:05 55.4 °F 45.0 °F 30.55 in WNW 2.0 mph 4.0 mph 68 % 0.00 in 427 W/m2
12:10 55.8 °F 45.0 °F 30.55 in WNW 2.0 mph 5.0 mph 67 % 0.00 in 434 W/m2
12:15 55.9 °F 44.7 °F 30.55 in WNW 3.0 mph 8.0 mph 66 % 0.00 in 436 W/m2
12:20 55.9 °F 43.9 °F 30.55 in West 6.0 mph 8.0 mph 64 % 0.00 in 438 W/m2
12:25 56.1 °F 44.1 °F 30.55 in West 2.0 mph 5.0 mph 64 % 0.00 in 438 W/m2
12:30 56.3 °F 44.7 °F 30.55 in WNW 1.0 mph 4.0 mph 65 % 0.00 in 441 W/m2
12:35 56.5 °F 44.4 °F 30.55 in West 3.0 mph 6.0 mph 64 % 0.00 in 443 W/m2
12:40 56.8 °F 44.8 °F 30.55 in NW 4.0 mph 7.0 mph 64 % 0.00 in 445 W/m2
12:45 57.0 °F 44.1 °F 30.54 in NW 2.0 mph 4.0 mph 62 % 0.00 in 443 W/m2
12:50 57.0 °F 44.5 °F 30.54 in WSW 4.0 mph 10.0 mph 63 % 0.00 in 441 W/m2
12:55 57.0 °F 44.1 °F 30.54 in WNW 4.0 mph 8.0 mph 62 % 0.00 in 445 W/m2
13:00 57.4 °F 44.5 °F 30.54 in West 4.0 mph 7.0 mph 62 % 0.00 in 443 W/m2
13:05 57.4 °F 44.5 °F 30.53 in West 6.0 mph 12.0 mph 62 % 0.00 in 443 W/m2
13:10 57.4 °F 44.5 °F 30.54 in WNW 6.0 mph 9.0 mph 62 % 0.00 in 441 W/m2
13:16 57.4 °F 44.5 °F 30.53 in West 6.0 mph 9.0 mph 62 % 0.00 in 441 W/m2
13:21 57.6 °F 44.6 °F 30.53 in West 6.0 mph 9.0 mph 62 % 0.00 in 436 W/m2
13:26 57.7 °F 44.8 °F 30.53 in West 5.0 mph 8.0 mph 62 % 0.00 in 434 W/m2
13:31 57.9 °F 45.0 °F 30.53 in West 6.0 mph 9.0 mph 62 % 0.00 in 432 W/m2
13:37 57.9 °F 45.0 °F 30.53 in NW 10.0 mph 14.0 mph 62 % 0.00 in 429 W/m2
13:42 57.9 °F 45.0 °F 30.53 in WNW 6.0 mph 13.0 mph 62 % 0.00 in 424 W/m2
13:47 57.9 °F 45.0 °F 30.53 in WNW 9.0 mph 14.0 mph 62 % 0.00 in 418 W/m2
13:52 57.9 °F 45.4 °F 30.53 in WNW 9.0 mph 14.0 mph 63 % 0.00 in 413 W/m2
13:57 57.9 °F 45.4 °F 30.53 in WNW 8.0 mph 11.0 mph 63 % 0.00 in 410 W/m2
14:02 57.9 °F 45.4 °F 30.53 in WNW 9.0 mph 14.0 mph 63 % 0.00 in 399 W/m2
14:07 57.9 °F 45.4 °F 30.53 in WNW 7.0 mph 14.0 mph 63 % 0.00 in 396 W/m2
14:12 57.9 °F 45.4 °F 30.53 in WNW 10.0 mph 14.0 mph 63 % 0.00 in 410 W/m2
14:17 57.9 °F 45.8 °F 30.53 in WNW 9.0 mph 16.0 mph 64 % 0.00 in 397 W/m2
14:22 57.9 °F 45.8 °F 30.53 in WNW 6.0 mph 10.0 mph 64 % 0.00 in 392 W/m2
14:27 57.9 °F 45.8 °F 30.53 in NW 6.0 mph 12.0 mph 64 % 0.00 in 373 W/m2
14:34 58.1 °F 46.4 °F 30.53 in West 8.0 mph 11.0 mph 65 % 0.00 in 359 W/m2
14:39 58.1 °F 46.4 °F 30.53 in West 6.0 mph 10.0 mph 65 % 0.00 in 348 W/m2
14:44 57.9 °F 46.2 °F 30.52 in West 8.0 mph 13.0 mph 65 % 0.00 in 341 W/m2
14:50 57.9 °F 46.2 °F 30.52 in WNW 7.0 mph 11.0 mph 65 % 0.00 in 334 W/m2
14:55 57.9 °F 46.2 °F 30.52 in West 8.0 mph 13.0 mph 65 % 0.00 in 320 W/m2
15:00 57.7 °F 46.5 °F 30.53 in WNW 6.0 mph 12.0 mph 66 % 0.00 in 320 W/m2
15:01 57.7 °F 46.5 °F 30.53 in WNW 8.0 mph 13.0 mph 66 % 0.00 in 332 W/m2
15:06 57.4 °F 45.7 °F 30.53 in WNW 7.0 mph 12.0 mph 65 % 0.00 in 58 W/m2
15:11 57.0 °F 46.2 °F 30.53 in WNW 8.0 mph 11.0 mph 67 % 0.00 in 306 W/m2
15:16 57.0 °F 46.2 °F 30.53 in West 9.0 mph 13.0 mph 67 % 0.00 in 260 W/m2
15:22 57.0 °F 45.8 °F 30.53 in WNW 11.0 mph 16.0 mph 66 % 0.00 in 309 W/m2
15:27 57.2 °F 46.3 °F 30.53 in WNW 8.0 mph 14.0 mph 67 % 0.00 in 336 W/m2
15:32 57.4 °F 46.1 °F 30.53 in WNW 8.0 mph 14.0 mph 66 % 0.00 in 174 W/m2
15:37 57.0 °F 45.8 °F 30.54 in West 7.0 mph 15.0 mph 66 % 0.00 in 155 W/m2
15:42 56.5 °F 45.7 °F 30.53 in WNW 8.0 mph 16.0 mph 67 % 0.00 in 77 W/m2
15:47 56.1 °F 45.7 °F 30.53 in WNW 8.0 mph 12.0 mph 68 % 0.00 in 141 W/m2
15:52 56.3 °F 46.3 °F 30.53 in WNW 5.0 mph 7.0 mph 69 % 0.00 in 281 W/m2
15:57 56.8 °F 46.4 °F 30.53 in West 5.0 mph 8.0 mph 68 % 0.00 in 278 W/m2
16:02 57.2 °F 45.9 °F 30.53 in West 9.0 mph 16.0 mph 66 % 0.00 in 230 W/m2
16:07 56.8 °F 45.6 °F 30.52 in West 9.0 mph 13.0 mph 66 % 0.00 in 193 W/m2
16:12 56.3 °F 45.5 °F 30.52 in West 6.0 mph 10.0 mph 67 % 0.00 in 199 W/m2
16:17 56.1 °F 46.1 °F 30.52 in WNW 5.0 mph 8.0 mph 69 % 0.00 in 163 W/m2
16:22 55.9 °F 45.9 °F 30.52 in West 6.0 mph 11.0 mph 69 % 0.00 in 35 W/m2
16:27 55.6 °F 45.6 °F 30.52 in WNW 7.0 mph 10.0 mph 69 % 0.00 in 35 W/m2
16:32 55.2 °F 45.2 °F 30.51 in West 8.0 mph 12.0 mph 69 % 0.00 in 32 W/m2
16:37 54.9 °F 45.3 °F 30.51 in West 7.0 mph 12.0 mph 70 % 0.00 in 28 W/m2
16:42 54.7 °F 45.1 °F 30.51 in West 6.0 mph 10.0 mph 70 % 0.00 in 26 W/m2
16:47 54.5 °F 45.3 °F 30.51 in West 6.0 mph 10.0 mph 71 % 0.00 in 25 W/m2
16:52 54.3 °F 45.1 °F 30.50 in West 6.0 mph 10.0 mph 71 % 0.00 in 23 W/m2
16:57 54.1 °F 45.3 °F 30.50 in WSW 6.0 mph 9.0 mph 72 % 0.00 in 21 W/m2
17:02 53.8 °F 45.0 °F 30.50 in West 4.0 mph 7.0 mph 72 % 0.00 in 19 W/m2
17:07 53.6 °F 45.2 °F 30.50 in SW 4.0 mph 6.0 mph 73 % 0.00 in 18 W/m2
17:12 53.4 °F 45.0 °F 30.50 in West 4.0 mph 9.0 mph 73 % 0.00 in 18 W/m2
17:17 53.2 °F 45.2 °F 30.50 in West 4.0 mph 8.0 mph 74 % 0.00 in 16 W/m2
17:22 52.9 °F 44.8 °F 30.50 in West 4.0 mph 7.0 mph 74 % 0.00 in 14 W/m2
17:27 52.7 °F 45.0 °F 30.50 in West 5.0 mph 8.0 mph 75 % 0.00 in 11 W/m2
17:32 52.3 °F 44.6 °F 30.50 in West 4.0 mph 7.0 mph 75 % 0.00 in 9 W/m2
17:37 52.2 °F 44.8 °F 30.50 in WSW 5.0 mph 7.0 mph 76 % 0.00 in 7 W/m2
17:43 52.0 °F 44.6 °F 30.50 in WSW 4.0 mph 7.0 mph 76 % 0.00 in 5 W/m2
17:48 51.6 °F 44.6 °F 30.50 in WNW 2.0 mph 5.0 mph 77 % 0.00 in 5 W/m2
17:53 51.4 °F 44.5 °F 30.50 in West 3.0 mph 5.0 mph 77 % 0.00 in 0 W/m2
17:58 51.1 °F 44.5 °F 30.49 in WSW 1.0 mph 4.0 mph 78 % 0.00 in 0 W/m2
18:03 50.7 °F 44.4 °F 30.49 in West 2.0 mph 5.0 mph 79 % 0.00 in 0 W/m2
18:13 50.2 °F 44.2 °F 30.50 in NW 1.0 mph 4.0 mph 80 % 0.00 in 0 W/m2
18:18 49.6 °F 43.7 °F 30.50 in NW 1.0 mph 2.0 mph 80 % 0.00 in 0 W/m2
18:23 49.5 °F 43.5 °F 30.50 in Calm     80 % 0.00 in 0 W/m2
18:28 48.9 °F 43.3 °F 30.50 in Calm     81 % 0.00 in 0 W/m2
18:33 48.7 °F 43.2 °F 30.50 in Calm     81 % 0.00 in 0 W/m2
18:38 48.4 °F 43.1 °F 30.50 in Calm     82 % 0.00 in 0 W/m2
18:43 48.0 °F 43.1 °F 30.50 in Calm     83 % 0.00 in 0 W/m2
18:48 47.7 °F 42.8 °F 30.50 in WNW 1.0 mph 6.0 mph 83 % 0.00 in 0 W/m2
18:53 47.7 °F 43.4 °F 30.50 in Calm   1.0 mph 85 % 0.00 in 0 W/m2
18:58 47.7 °F 43.4 °F 30.50 in Calm   3.0 mph 85 % 0.00 in 0 W/m2
19:03 47.5 °F 43.2 °F 30.50 in WNW 1.0 mph 4.0 mph 85 % 0.00 in 0 W/m2
19:08 47.3 °F 43.0 °F 30.49 in WNW 1.0 mph 4.0 mph 85 % 0.00 in 0 W/m2
19:13 47.1 °F 42.8 °F 30.49 in West 3.0 mph 8.0 mph 85 % 0.00 in 0 W/m2
19:18 46.9 °F 42.7 °F 30.50 in West 3.0 mph 6.0 mph 85 % 0.00 in 0 W/m2
19:23 46.9 °F 43.0 °F 30.50 in West 3.0 mph 6.0 mph 86 % 0.00 in 0 W/m2
19:28 46.9 °F 43.0 °F 30.50 in West 3.0 mph 6.0 mph 86 % 0.00 in 0 W/m2
19:33 46.8 °F 42.8 °F 30.50 in West 4.0 mph 9.0 mph 86 % 0.00 in 0 W/m2
19:38 46.8 °F 42.8 °F 30.49 in WNW 4.0 mph 8.0 mph 86 % 0.00 in 0 W/m2
19:43 46.8 °F 42.8 °F 30.50 in WNW 5.0 mph 10.0 mph 86 % 0.00 in 0 W/m2
19:48 46.9 °F 43.3 °F 30.50 in WNW 4.0 mph 8.0 mph 87 % 0.00 in 0 W/m2
19:53 46.9 °F 43.3 °F 30.50 in WNW 7.0 mph 11.0 mph 87 % 0.00 in 0 W/m2
19:58 47.1 °F 43.4 °F 30.49 in West 7.0 mph 9.0 mph 87 % 0.00 in 0 W/m2
20:03 47.1 °F 43.4 °F 30.49 in West 5.0 mph 9.0 mph 87 % 0.00 in 0 W/m2
20:08 47.3 °F 43.3 °F 30.49 in West 6.0 mph 9.0 mph 86 % 0.00 in 0 W/m2
20:13 47.3 °F 43.3 °F 30.49 in West 6.0 mph 10.0 mph 86 % 0.00 in 0 W/m2
20:18 47.5 °F 43.5 °F 30.49 in West 7.0 mph 13.0 mph 86 % 0.00 in 0 W/m2
20:23 47.5 °F 43.5 °F 30.49 in West 7.0 mph 21.0 mph 86 % 0.00 in 0 W/m2
20:28 47.7 °F 43.4 °F 30.49 in WNW 9.0 mph 18.0 mph 85 % 0.00 in 0 W/m2
20:33 47.8 °F 43.5 °F 30.49 in WNW 8.0 mph 12.0 mph 85 % 0.00 in 0 W/m2
20:38 48.0 °F 43.7 °F 30.49 in WNW 9.0 mph 14.0 mph 85 % 0.00 in 0 W/m2
20:43 48.0 °F 43.4 °F 30.49 in WNW 10.0 mph 16.0 mph 84 % 0.00 in 0 W/m2
20:48 48.2 °F 43.6 °F 30.49 in WNW 8.0 mph 13.0 mph 84 % 0.00 in 0 W/m2
20:53 48.2 °F 43.6 °F 30.48 in WNW 9.0 mph 14.0 mph 84 % 0.00 in 0 W/m2
20:58 48.4 °F 43.5 °F 30.48 in WNW 9.0 mph 14.0 mph 83 % 0.00 in 0 W/m2
21:03 48.4 °F 43.5 °F 30.48 in WNW 10.0 mph 15.0 mph 83 % 0.00 in 0 W/m2
21:08 48.4 °F 43.5 °F 30.48 in WNW 8.0 mph 12.0 mph 83 % 0.00 in 0 W/m2
21:13 48.4 °F 43.5 °F 30.48 in WNW 8.0 mph 12.0 mph 83 % 0.00 in 0 W/m2
21:19 48.4 °F 43.5 °F 30.48 in WNW 10.0 mph 14.0 mph 83 % 0.00 in 0 W/m2
21:24 48.6 °F 43.6 °F 30.48 in WNW 9.0 mph 13.0 mph 83 % 0.00 in 0 W/m2
21:29 48.6 °F 43.6 °F 30.48 in WNW 8.0 mph 14.0 mph 83 % 0.00 in 0 W/m2
21:33 48.6 °F 43.3 °F 30.47 in WNW 7.0 mph 14.0 mph 82 % 0.00 in 0 W/m2
21:39 48.6 °F 43.6 °F 30.47 in WNW 6.0 mph 12.0 mph 83 % 0.00 in 0 W/m2
21:44 48.4 °F 43.5 °F 30.47 in West 8.0 mph 13.0 mph 83 % 0.00 in 0 W/m2
21:49 48.4 °F 43.5 °F 30.47 in WNW 7.0 mph 14.0 mph 83 % 0.00 in 0 W/m2
21:54 48.4 °F 43.5 °F 30.47 in West 8.0 mph 13.0 mph 83 % 0.00 in 0 W/m2
21:59 48.6 °F 43.3 °F 30.46 in WNW 10.0 mph 20.0 mph 82 % 0.00 in 0 W/m2
22:04 48.6 °F 43.3 °F 30.46 in WNW 9.0 mph 18.0 mph 82 % 0.00 in 0 W/m2
22:09 48.6 °F 43.3 °F 30.46 in WNW 12.0 mph 19.0 mph 82 % 0.00 in 0 W/m2
22:14 48.6 °F 43.3 °F 30.46 in WNW 11.0 mph 19.0 mph 82 % 0.00 in 0 W/m2
22:19 48.6 °F 43.3 °F 30.46 in WNW 9.0 mph 13.0 mph 82 % 0.00 in 0 W/m2
22:24 48.6 °F 43.3 °F 30.46 in WNW 11.0 mph 19.0 mph 82 % 0.00 in 0 W/m2
22:29 48.7 °F 43.5 °F 30.45 in WNW 11.0 mph 19.0 mph 82 % 0.00 in 0 W/m2
22:34 48.7 °F 43.5 °F 30.45 in West 14.0 mph 22.0 mph 82 % 0.00 in 0 W/m2
22:39 48.7 °F 43.2 °F 30.45 in WNW 14.0 mph 20.0 mph 81 % 0.00 in 0 W/m2
22:44 48.7 °F 43.2 °F 30.46 in WNW 13.0 mph 24.0 mph 81 % 0.00 in 0 W/m2
22:49 48.7 °F 43.2 °F 30.45 in WNW 14.0 mph 22.0 mph 81 % 0.00 in 0 W/m2
22:54 48.7 °F 43.2 °F 30.45 in WNW 12.0 mph 21.0 mph 81 % 0.00 in 0 W/m2
22:59 48.7 °F 43.2 °F 30.45 in WNW 12.0 mph 23.0 mph 81 % 0.00 in 0 W/m2
23:04 48.7 °F 43.2 °F 30.45 in WNW 10.0 mph 16.0 mph 81 % 0.00 in 0 W/m2
23:09 48.7 °F 43.2 °F 30.44 in WNW 10.0 mph 21.0 mph 81 % 0.00 in 0 W/m2
23:14 48.7 °F 43.2 °F 30.44 in WNW 9.0 mph 16.0 mph 81 % 0.00 in 0 W/m2
23:19 48.6 °F 43.0 °F 30.44 in WNW 10.0 mph 16.0 mph 81 % 0.00 in 0 W/m2
23:24 48.7 °F 43.5 °F 30.43 in West 17.0 mph 24.0 mph 82 % 0.00 in 0 W/m2
23:29 48.7 °F 43.5 °F 30.43 in WNW 13.0 mph 21.0 mph 82 % 0.00 in 0 W/m2
23:34 48.7 °F 43.5 °F 30.43 in WNW 9.0 mph 14.0 mph 82 % 0.00 in 0 W/m2
23:39 48.7 °F 43.5 °F 30.43 in WNW 10.0 mph 22.0 mph 82 % 0.00 in 0 W/m2
23:44 48.7 °F 43.5 °F 30.43 in WNW 10.0 mph 22.0 mph 82 % 0.00 in 0 W/m2
23:49 48.6 °F 43.3 °F 30.43 in WNW 11.0 mph 21.0 mph 82 % 0.00 in 0 W/m2
23:54 48.6 °F 43.3 °F 30.42 in WNW 9.0 mph 13.0 mph 82 % 0.00 in 0 W/m2
23:59 48.6 °F 43.3 °F 30.42 in WNW 12.0 mph 27.0 mph 82 % 0.00 in 0 W/m2
Delerius-Weather
Compliments of Weather Underground - 2.25 mb

Data updates at regular intervals.